Time;durP1;ratioP1;P1;durP2;ratioP2;P2;SDS_P1;SDS_P2;PMS_P1;PMS_P2;Temp;Humidity;BMP_temperature;BMP_pressure;BME280_temperature;BME280_humidity;BME280_pressure;Samples;Min_cycle;Max_cycle;Signal;HPM_P1;HPM_P2
2024/02/07 00:01:25;;;;;;;6.00;1.85;;;;;;;10.78;57.09;99854.47;5072779;28;20092;-46
2024/02/07 00:03:54;;;;;;;5.60;1.75;;;;;;;10.63;57.52;99855.50;5073005;28;20493;-46
2024/02/07 00:06:22;;;;;;;5.05;1.73;;;;;;;10.75;57.46;99853.81;5073133;28;20048;-47
2024/02/07 00:08:51;;;;;;;6.90;2.08;;;;;;;10.76;57.40;99855.53;5072880;28;20199;-45
2024/02/07 00:11:19;;;;;;;7.03;1.95;;;;;;;10.65;57.66;99852.72;5072855;28;20136;-48
2024/02/07 00:13:47;;;;;;;7.85;2.03;;;;;;;10.50;57.84;99871.44;5072563;28;20121;-44
2024/02/07 00:16:17;;;;;;;6.13;1.70;;;;;;;10.52;57.82;99860.72;5072931;28;20433;-45
2024/02/07 00:18:47;;;;;;;5.78;1.83;;;;;;;10.50;58.16;99854.59;5072436;28;20040;-45
2024/02/07 00:21:15;;;;;;;4.88;1.70;;;;;;;10.53;57.85;99865.06;5072695;28;20135;-45
2024/02/07 00:23:44;;;;;;;8.02;1.75;;;;;;;10.61;57.66;99857.41;5072470;28;20081;-44
2024/02/07 00:26:12;;;;;;;5.82;2.08;;;;;;;10.56;57.86;99848.88;5072410;28;20045;-44
2024/02/07 00:28:40;;;;;;;7.38;2.15;;;;;;;10.58;57.84;99862.94;5072359;28;20512;-45
2024/02/07 00:31:09;;;;;;;3.40;1.63;;;;;;;10.53;57.84;99846.41;5072489;28;20086;-45
2024/02/07 00:33:37;;;;;;;8.73;2.33;;;;;;;10.54;58.18;99842.78;5072391;28;20071;-44
2024/02/07 00:36:07;;;;;;;6.72;1.80;;;;;;;10.53;57.88;99839.25;5072201;28;20055;-44
2024/02/07 00:38:36;;;;;;;6.57;2.10;;;;;;;10.48;58.10;99840.50;5072049;28;20493;-45
2024/02/07 00:41:04;;;;;;;5.95;1.80;;;;;;;10.48;57.84;99841.38;5072068;28;20075;-44
2024/02/07 00:43:33;;;;;;;3.97;1.58;;;;;;;10.47;58.17;99844.13;5072367;28;20510;-45
2024/02/07 00:46:02;;;;;;;6.35;2.00;;;;;;;10.36;58.38;99836.84;5072346;28;20421;-45
2024/02/07 00:48:30;;;;;;;6.18;2.00;;;;;;;10.40;58.44;99842.81;5072079;28;20041;-45
2024/02/07 00:50:58;;;;;;;8.73;1.98;;;;;;;10.38;58.40;99834.09;5072114;28;20048;-46
2024/02/07 00:53:28;;;;;;;6.63;2.35;;;;;;;10.44;58.26;99831.03;5071732;28;20102;-44
2024/02/07 00:55:56;;;;;;;4.63;1.92;;;;;;;10.45;58.56;99828.25;5072114;28;20051;-44
2024/02/07 00:58:25;;;;;;;8.02;1.80;;;;;;;10.44;58.49;99829.22;5071699;28;20132;-45
2024/02/07 01:00:54;;;;;;;5.30;1.95;;;;;;;10.42;58.52;99839.13;5071617;28;20382;-45
2024/02/07 01:03:23;;;;;;;5.60;1.83;;;;;;;10.43;58.66;99826.66;5071731;28;20051;-43
2024/02/07 01:05:52;;;;;;;7.43;2.20;;;;;;;10.41;58.67;99823.19;5071584;28;20399;-44
2024/02/07 01:08:21;;;;;;;8.10;2.30;;;;;;;10.35;58.85;99815.63;5071646;28;20055;-45
2024/02/07 01:10:50;;;;;;;6.40;2.22;;;;;;;10.39;59.19;99812.66;5071646;28;20052;-44
2024/02/07 01:13:19;;;;;;;5.20;2.10;;;;;;;10.41;58.83;99820.53;5071763;28;20496;-46
2024/02/07 01:15:47;;;;;;;7.75;2.50;;;;;;;10.34;58.62;99814.78;5071476;28;20055;-45
2024/02/07 01:18:15;;;;;;;5.07;1.88;;;;;;;10.28;58.92;99812.50;5072046;28;20094;-45
2024/02/07 01:20:44;;;;;;;7.35;2.10;;;;;;;10.31;58.95;99810.47;5071283;28;20096;-44
2024/02/07 01:23:12;;;;;;;4.78;2.03;;;;;;;10.28;58.84;99807.16;5071993;28;20497;-46
2024/02/07 01:25:42;;;;;;;5.45;1.92;;;;;;;10.31;58.74;99799.81;5072164;28;20068;-45
2024/02/07 01:28:12;;;;;;;7.25;2.25;;;;;;;10.32;58.79;99798.84;5072365;28;20049;-46
2024/02/07 01:30:41;;;;;;;6.88;2.05;;;;;;;10.34;58.82;99800.59;5074031;28;20088;-45
2024/02/07 01:33:09;;;;;;;4.85;2.10;;;;;;;10.39;58.72;99809.13;5071386;28;20391;-46
2024/02/07 01:35:38;;;;;;;7.55;2.15;;;;;;;10.39;58.51;99803.78;5071092;28;20045;-45
2024/02/07 01:38:08;;;;;;;7.13;3.15;;;;;;;10.37;58.90;99793.25;5071123;28;20051;-47
2024/02/07 01:40:42;;;;;;;8.52;2.20;;;;;;;10.38;58.82;99794.94;5071036;28;20055;-45
2024/02/07 01:43:13;;;;;;;5.97;2.00;;;;;;;10.38;58.36;99794.09;5070838;28;20045;-51
2024/02/07 01:45:42;;;;;;;5.78;2.10;;;;;;;10.45;58.54;99790.91;5070947;28;20358;-46
2024/02/07 01:48:10;;;;;;;7.32;2.50;;;;;;;10.40;58.31;99790.34;5070459;28;20051;-45
2024/02/07 01:50:40;;;;;;;6.15;2.05;;;;;;;10.37;58.58;99784.38;5071088;28;20052;-45
2024/02/07 01:53:10;;;;;;;5.63;2.22;;;;;;;10.32;58.43;99793.53;5070889;28;20131;-47
2024/02/07 01:55:40;;;;;;;9.63;2.30;;;;;;;10.31;58.60;99783.81;5070924;28;20055;-45
2024/02/07 01:58:09;;;;;;;5.93;1.70;;;;;;;10.28;58.29;99778.69;5070892;28;20044;-45
2024/02/07 02:00:38;;;;;;;4.78;1.75;;;;;;;10.35;58.26;99775.63;5070423;28;20496;-50
2024/02/07 02:03:07;;;;;;;7.68;2.10;;;;;;;10.32;58.62;99780.19;5071011;28;20052;-46
2024/02/07 02:05:35;;;;;;;5.78;1.90;;;;;;;10.35;58.43;99779.16;5070734;28;20542;-45
2024/02/07 02:08:04;;;;;;;4.00;1.90;;;;;;;10.39;58.21;99782.47;5070694;28;20416;-45
2024/02/07 02:10:33;;;;;;;6.38;1.83;;;;;;;10.41;58.46;99775.22;5070634;28;20051;-45
2024/02/07 02:13:02;;;;;;;6.00;2.05;;;;;;;10.36;58.31;99780.00;5068912;28;20049;-45
2024/02/07 02:15:31;;;;;;;7.00;2.10;;;;;;;10.30;58.38;99778.59;5070674;28;20440;-45
2024/02/07 02:18:02;;;;;;;5.30;1.90;;;;;;;10.31;58.43;99769.63;5070727;28;20052;-44
2024/02/07 02:20:31;;;;;;;6.57;2.10;;;;;;;10.31;58.38;99775.81;5070652;28;20052;-45
2024/02/07 02:23:13;;;;;;;6.85;2.00;;;;;;;10.29;58.44;99777.75;5070436;28;20093;-45
2024/02/07 02:26:12;;;;;;;5.68;2.20;;;;;;;10.30;58.85;99795.44;5070400;28;20200;-45
2024/02/07 02:28:54;;;;;;;8.85;1.88;;;;;;;10.31;58.55;99775.81;5070881;28;20053;-44
2024/02/07 02:31:25;;;;;;;7.28;2.15;;;;;;;10.21;58.68;99777.34;5070562;28;20044;-49
2024/02/07 02:33:57;;;;;;;7.22;2.05;;;;;;;10.18;59.27;99769.56;5070451;28;20051;-45
2024/02/07 02:36:26;;;;;;;6.22;2.13;;;;;;;10.05;59.39;99768.69;5070482;28;20518;-43
2024/02/07 02:38:55;;;;;;;7.47;2.33;;;;;;;9.98;60.43;99757.56;5070645;28;20234;-45
2024/02/07 02:41:24;;;;;;;5.65;2.20;;;;;;;10.00;60.44;99754.78;5070456;28;20118;-45
2024/02/07 02:43:53;;;;;;;7.97;2.25;;;;;;;10.01;60.33;99762.69;5070634;28;20048;-46
2024/02/07 02:46:21;;;;;;;6.30;2.00;;;;;;;10.06;59.70;99757.06;5070326;28;20568;-45
2024/02/07 02:48:51;;;;;;;6.45;1.90;;;;;;;10.17;59.45;99754.53;5070442;28;20049;-46
2024/02/07 02:51:21;;;;;;;6.57;1.88;;;;;;;10.11;59.13;99760.25;5070462;28;20110;-45
2024/02/07 02:53:51;;;;;;;6.13;2.35;;;;;;;10.16;59.87;99762.66;5070240;28;20051;-45
2024/02/07 02:56:20;;;;;;;4.63;1.80;;;;;;;10.11;59.09;99748.75;5070358;28;20049;-45
2024/02/07 02:58:48;;;;;;;6.80;2.20;;;;;;;10.05;59.72;99752.69;5070782;28;20046;-44
2024/02/07 03:01:17;;;;;;;5.68;2.55;;;;;;;9.89;60.67;99757.31;5072421;28;20057;-49
2024/02/07 03:03:53;;;;;;;8.00;2.75;;;;;;;9.79;60.94;99753.53;5074134;28;20052;-44
2024/02/07 03:06:37;;;;;;;5.97;2.65;;;;;;;9.77;61.53;99747.47;5072498;28;20053;-45
2024/02/07 03:09:19;;;;;;;;;;;;;;;9.71;62.02;99752.22;5074310;28;20133;-45
2024/02/07 03:11:48;;;;;;;5.90;2.20;;;;;;;9.56;62.92;99742.56;5073986;28;20012;-46
2024/02/07 03:14:17;;;;;;;8.18;2.63;;;;;;;9.53;62.75;99744.56;5074296;28;20094;-46
2024/02/07 03:16:45;;;;;;;6.00;2.20;;;;;;;9.56;62.83;99750.56;5073824;28;20576;-45
2024/02/07 03:19:14;;;;;;;5.13;2.20;;;;;;;9.60;62.84;99752.06;5073778;28;20063;-45
2024/02/07 03:21:44;;;;;;;4.03;2.00;;;;;;;9.55;63.02;99754.16;5073548;28;20091;-45
2024/02/07 03:24:13;;;;;;;7.38;2.53;;;;;;;9.52;63.14;99749.03;5073133;28;20051;-45
2024/02/07 03:26:44;;;;;;;6.25;2.13;;;;;;;9.57;62.92;99749.59;5073634;28;20119;-46
2024/02/07 03:29:12;;;;;;;5.60;2.40;;;;;;;9.47;63.19;99759.13;5073454;28;20127;-49
2024/02/07 03:31:41;;;;;;;9.10;2.75;;;;;;;9.41;64.07;99754.19;5073587;28;20052;-45
2024/02/07 03:34:09;;;;;;;10.38;2.45;;;;;;;9.31;64.39;99753.06;5073490;28;20093;-45
2024/02/07 03:36:38;;;;;;;7.95;2.67;;;;;;;9.29;64.38;99749.63;5073450;28;20386;-45
2024/02/07 03:39:09;;;;;;;9.40;2.70;;;;;;;9.20;64.73;99753.72;5073547;28;20045;-47
2024/02/07 03:41:39;;;;;;;7.45;2.40;;;;;;;9.15;65.32;99751.34;5073397;28;20250;-45
2024/02/07 03:44:12;;;;;;;5.40;2.40;;;;;;;9.06;65.37;99748.38;5073499;28;20053;-43
2024/02/07 03:46:41;;;;;;;6.80;2.50;;;;;;;9.02;65.87;99753.06;5073389;28;20086;-45
2024/02/07 03:49:10;;;;;;;7.03;2.45;;;;;;;9.06;65.94;99754.56;5072966;28;20045;-45
2024/02/07 03:51:38;;;;;;;7.55;2.70;;;;;;;9.06;65.87;99759.88;5073213;28;20047;-47
2024/02/07 03:54:09;;;;;;;7.18;2.65;;;;;;;9.02;66.24;99755.72;5073265;28;20052;-45
2024/02/07 03:56:38;;;;;;;6.95;2.47;;;;;;;9.04;65.82;99758.28;5073091;28;20067;-45
2024/02/07 03:59:06;;;;;;;6.40;2.40;;;;;;;9.02;66.28;99747.72;5072724;28;20233;-47
2024/02/07 04:01:35;;;;;;;5.95;2.65;;;;;;;9.04;66.47;99740.50;5072532;28;20139;-45
2024/02/07 04:04:06;;;;;;;7.90;2.95;;;;;;;9.08;66.23;99728.75;5072663;28;20102;-46
2024/02/07 04:06:36;;;;;;;7.18;2.80;;;;;;;9.01;66.75;99727.41;5073087;28;20395;-44
2024/02/07 04:09:05;;;;;;;8.68;3.25;;;;;;;8.97;67.28;99728.53;5072974;28;20075;-47
2024/02/07 05:17:18;;;;;;;7.28;2.97;;;;;;;8.26;73.72;99715.09;5071417;28;20539;-46
2024/02/07 05:19:47;;;;;;;8.52;3.28;;;;;;;8.30;73.49;99703.38;5071398;28;20080;-46
2024/02/07 05:22:17;;;;;;;11.13;3.10;;;;;;;8.36;73.15;99692.38;5070726;28;20051;-45
2024/02/07 05:24:47;;;;;;;8.93;3.30;;;;;;;8.22;73.99;99700.31;5071206;28;20063;-45
2024/02/07 05:27:17;;;;;;;8.77;3.30;;;;;;;8.10;74.72;99696.53;5071157;28;20060;-45
2024/02/07 05:29:45;;;;;;;9.73;4.00;;;;;;;8.19;74.56;99705.78;5071317;28;20548;-47
2024/02/07 05:32:14;;;;;;;8.10;3.47;;;;;;;8.19;74.57;99705.78;5071158;28;20072;-49
2024/02/07 05:34:44;;;;;;;9.13;3.42;;;;;;;8.26;74.21;99699.16;5071536;28;20056;-45
2024/02/07 05:37:12;;;;;;;9.88;3.45;;;;;;;8.35;73.46;99701.31;5071163;28;20079;-46
2024/02/07 05:39:41;;;;;;;9.65;3.47;;;;;;;8.44;73.07;99708.72;5071278;28;20044;-46
2024/02/07 05:42:09;;;;;;;12.38;3.45;;;;;;;8.41;73.04;99706.28;5070971;28;20048;-45
2024/02/07 05:44:38;;;;;;;7.55;3.17;;;;;;;8.42;73.01;99707.97;5071190;28;20143;-46
2024/02/07 05:47:06;;;;;;;12.32;3.55;;;;;;;8.44;73.26;99716.72;5071291;28;20072;-45
2024/02/07 05:49:37;;;;;;;6.65;3.30;;;;;;;8.39;73.75;99707.28;5070930;28;20488;-44
2024/02/07 05:52:07;;;;;;;9.90;3.22;;;;;;;8.49;73.22;99711.97;5070840;28;20072;-46
2024/02/07 05:54:36;;;;;;;9.70;3.95;;;;;;;8.45;73.20;99715.75;5070726;28;20559;-48
2024/02/07 05:57:05;;;;;;;7.25;3.70;;;;;;;8.47;73.21;99705.03;5070808;28;20056;-45
2024/02/07 05:59:33;;;;;;;11.85;4.00;;;;;;;8.45;73.29;99706.94;5070450;28;20140;-50
2024/02/07 06:02:02;;;;;;;8.88;3.58;;;;;;;8.36;73.73;99705.66;5071090;28;20331;-47
2024/02/07 06:04:31;;;;;;;10.23;3.95;;;;;;;8.31;73.84;99710.38;5070771;28;20381;-46
2024/02/07 06:07:00;;;;;;;11.13;4.15;;;;;;;8.22;74.50;99709.13;5070670;28;20438;-45
2024/02/07 06:09:29;;;;;;;15.27;4.75;;;;;;;8.15;75.25;99709.56;5070741;28;20446;-47
2024/02/07 06:11:57;;;;;;;10.90;4.15;;;;;;;8.24;75.17;99714.34;5070962;28;20048;-46
2024/02/07 06:14:26;;;;;;;11.88;3.60;;;;;;;8.28;74.95;99713.22;5070574;28;20049;-46
2024/02/07 06:16:55;;;;;;;12.90;4.43;;;;;;;8.41;74.38;99718.69;5070537;28;20055;-46
2024/02/07 06:19:23;;;;;;;9.45;4.38;;;;;;;8.29;74.87;99720.22;5070572;28;20056;-45
2024/02/07 06:21:52;;;;;;;11.98;4.70;;;;;;;8.23;75.72;99720.59;5070192;28;20063;-45
2024/02/07 06:24:21;;;;;;;10.20;4.25;;;;;;;8.28;75.98;99726.50;5070938;28;20044;-45
2024/02/07 06:26:50;;;;;;;11.60;4.15;;;;;;;8.31;75.70;99723.69;5070751;28;20164;-50
2024/02/07 06:29:19;;;;;;;13.88;4.78;;;;;;;8.29;76.19;99718.41;5070697;28;20053;-46
2024/02/07 06:31:47;;;;;;;14.35;5.53;;;;;;;8.34;76.16;99715.50;5070841;28;20482;-47
2024/02/07 06:34:15;;;;;;;10.30;4.82;;;;;;;8.46;79.14;99720.13;5073698;28;20508;-46
2024/02/07 06:36:44;;;;;;;13.90;5.30;;;;;;;8.50;76.19;99720.81;5076879;28;20052;-46
2024/02/07 06:39:14;;;;;;;14.73;5.45;;;;;;;8.49;75.10;99719.97;5074980;28;20052;-45
2024/02/07 06:41:42;;;;;;;13.77;5.45;;;;;;;8.36;75.56;99708.31;5074436;28;20143;-45
2024/02/07 06:44:12;;;;;;;13.68;5.55;;;;;;;8.38;75.70;99714.41;5074669;28;20074;-45
2024/02/07 06:46:44;;;;;;;14.10;5.80;;;;;;;8.27;76.46;99720.31;5074427;28;20118;-47
2024/02/07 06:49:13;;;;;;;14.47;6.63;;;;;;;8.34;75.96;99715.50;5074394;28;20135;-45
2024/02/07 06:51:41;;;;;;;17.38;8.60;;;;;;;8.31;76.15;99721.03;5074174;28;20048;-45
2024/02/07 06:54:11;;;;;;;17.35;8.77;;;;;;;8.25;76.47;99726.69;5074401;28;20049;-45
2024/02/07 06:56:40;;;;;;;15.75;9.02;;;;;;;7.77;79.70;99715.31;5074520;28;20049;-46
2024/02/07 06:59:11;;;;;;;19.65;9.13;;;;;;;7.97;78.84;99744.22;5074345;28;20525;-46
2024/02/07 07:01:41;;;;;;;19.42;10.00;;;;;;;7.89;78.47;99734.97;5073959;28;20087;-46
2024/02/07 07:04:10;;;;;;;17.13;9.02;;;;;;;7.87;79.36;99729.75;5074256;28;20041;-44
2024/02/07 07:06:38;;;;;;;24.75;9.88;;;;;;;7.77;79.62;99710.00;5074328;28;20080;-45
2024/02/07 07:09:10;;;;;;;19.58;9.40;;;;;;;7.80;79.81;99709.81;5074495;28;20059;-45
2024/02/07 07:11:38;;;;;;;18.83;10.07;;;;;;;7.82;79.80;99701.78;5074057;28;20569;-45
2024/02/07 07:14:08;;;;;;;19.23;9.77;;;;;;;7.87;80.00;99703.22;5074033;28;20186;-44
2024/02/07 07:16:37;;;;;;;20.45;9.82;;;;;;;7.71;80.48;99699.72;5073968;28;20106;-44
2024/02/07 07:19:06;;;;;;;23.00;10.23;;;;;;;7.38;84.22;99697.19;5073963;28;20045;-44
2024/02/07 07:21:40;;;;;;;22.08;10.57;;;;;;;7.43;85.63;99696.00;5073813;28;20056;-44
2024/02/07 07:24:09;;;;;;;18.80;10.32;;;;;;;7.57;84.36;99697.00;5073718;28;20091;-45
2024/02/07 07:26:37;;;;;;;20.42;10.57;;;;;;;7.79;82.83;99686.84;5073337;28;20545;-44
2024/02/07 07:29:05;;;;;;;22.25;10.52;;;;;;;7.89;81.81;99681.88;5073856;28;20053;-46
2024/02/07 07:31:34;;;;;;;20.30;10.85;;;;;;;7.85;82.31;99675.91;5073818;28;20041;-44
2024/02/07 07:34:03;;;;;;;20.02;11.13;;;;;;;7.83;82.64;99672.47;5073682;28;20044;-45
2024/02/07 07:36:32;;;;;;;21.83;11.43;;;;;;;7.63;85.00;99680.75;5073571;28;20115;-44
2024/02/07 07:39:01;;;;;;;19.73;11.15;;;;;;;7.80;84.18;99688.56;5073412;28;20045;-44
2024/02/07 07:41:30;;;;;;;22.55;12.32;;;;;;;7.68;87.04;99673.34;5073406;28;20378;-46
2024/02/07 07:44:01;;;;;;;23.77;12.50;;;;;;;7.79;86.24;99676.25;5073444;28;20052;-43
2024/02/07 07:46:29;;;;;;;25.73;13.02;;;;;;;7.86;86.48;99666.13;5072591;28;20526;-44
2024/02/07 07:48:58;;;;;;;28.17;13.70;;;;;;;7.92;87.85;99665.78;5073351;28;20048;-44
2024/02/07 07:51:27;;;;;;;27.08;14.45;;;;;;;7.92;89.12;99666.63;5073273;28;20044;-43
2024/02/07 07:53:57;;;;;;;27.27;14.57;;;;;;;8.08;89.54;99677.19;5073150;28;20136;-45
2024/02/07 07:56:30;;;;;;;31.83;15.88;;;;;;;7.89;93.34;99682.72;5073219;28;20485;-45
2024/02/07 07:58:58;;;;;;;;;;;;;;;7.80;95.57;99680.59;5073521;28;20144;-45
2024/02/07 08:01:28;;;;;;;28.23;14.82;;;;;;;7.91;94.62;99675.53;5073054;28;19927;-45
2024/02/07 08:03:56;;;;;;;28.17;15.02;;;;;;;8.18;89.56;99672.19;5073248;28;20045;-44
2024/02/07 08:06:24;;;;;;;28.50;15.27;;;;;;;8.29;87.72;99680.38;5072900;28;20048;-44
2024/02/07 08:08:53;;;;;;;31.70;16.08;;;;;;;8.56;85.80;99673.44;5072861;28;20645;-44
2024/02/07 08:11:22;;;;;;;33.13;15.93;;;;;;;8.56;85.71;99672.56;5073299;28;20048;-44
2024/02/07 08:13:50;;;;;;;29.52;15.57;;;;;;;8.81;84.28;99686.09;5072917;28;20048;-43
2024/02/07 08:16:19;;;;;;;30.60;16.30;;;;;;;8.97;83.97;99682.44;5072720;28;20048;-45
2024/02/07 08:18:48;;;;;;;34.72;17.00;;;;;;;9.10;83.15;99678.94;5071399;28;20071;-46
2024/02/07 08:21:22;;;;;;;33.10;16.63;;;;;;;9.33;82.67;99663.31;5072831;28;20128;-45
2024/02/07 08:23:50;;;;;;;32.65;15.52;;;;;;;9.43;81.82;99657.28;5072558;28;20440;-46
2024/02/07 08:26:19;;;;;;;36.97;17.52;;;;;;;9.47;82.02;99655.31;5072927;28;20082;-46
2024/02/07 08:28:48;;;;;;;30.63;16.92;;;;;;;9.53;82.54;99654.03;5072416;28;20040;-46
2024/02/07 08:31:17;;;;;;;32.08;17.05;;;;;;;9.67;81.79;99646.84;5072415;28;20075;-44
2024/02/07 08:33:46;;;;;;;34.53;17.55;;;;;;;9.76;81.75;99653.38;5072269;28;20056;-46
2024/02/07 08:36:14;;;;;;;30.25;16.58;;;;;;;9.88;80.68;99654.38;5072443;28;20083;-44
2024/02/07 08:38:43;;;;;;;30.13;17.35;;;;;;;9.97;79.77;99648.44;5070807;28;20048;-45
2024/02/07 08:41:11;;;;;;;32.58;17.55;;;;;;;10.08;78.13;99650.38;5072258;28;20054;-47
2024/02/07 08:43:39;;;;;;;30.05;16.38;;;;;;;10.14;77.20;99647.31;5072152;28;20105;-45
2024/02/07 08:46:08;;;;;;;33.83;17.98;;;;;;;10.24;76.50;99643.94;5071920;28;20056;-45
2024/02/07 08:48:37;;;;;;;34.30;17.23;;;;;;;10.22;76.69;99643.16;5072013;28;20105;-44
2024/02/07 08:51:06;;;;;;;31.80;17.58;;;;;;;10.25;76.82;99631.47;5071823;28;20401;-49
2024/02/07 08:53:34;;;;;;;32.40;18.02;;;;;;;10.35;75.83;99637.03;5071884;28;20507;-44
2024/02/07 08:56:02;;;;;;;32.38;17.73;;;;;;;10.47;74.71;99623.69;5072036;28;20040;-44
2024/02/07 08:58:30;;;;;;;32.03;17.55;;;;;;;10.59;74.37;99612.16;5071777;28;20103;-45
2024/02/07 09:01:03;;;;;;;33.90;18.15;;;;;;;10.51;74.26;99616.31;5071458;28;20059;-47
2024/02/07 09:03:33;;;;;;;35.15;18.55;;;;;;;10.53;74.23;99614.41;5071635;28;20084;-44
2024/02/07 09:06:01;;;;;;;34.17;18.08;;;;;;;10.40;75.25;99614.41;5071589;28;20044;-47
2024/02/07 09:08:30;;;;;;;35.30;18.58;;;;;;;10.38;75.62;99610.97;5071571;28;20080;-45
2024/02/07 09:10:58;;;;;;;34.90;18.67;;;;;;;10.49;74.52;99607.56;5071528;28;20044;-46
2024/02/07 09:13:27;;;;;;;30.30;17.95;;;;;;;10.62;74.00;99600.44;5071824;28;20083;-46
2024/02/07 09:15:55;;;;;;;32.60;18.40;;;;;;;10.78;73.50;99601.03;5071712;28;20112;-46
2024/02/07 09:18:27;;;;;;;33.83;19.45;;;;;;;10.79;72.80;99605.41;5071791;28;20064;-44
2024/02/07 09:20:56;;;;;;;35.97;19.08;;;;;;;10.95;72.54;99596.31;5071199;28;20493;-46
2024/02/07 09:23:25;;;;;;;36.78;19.45;;;;;;;11.05;71.95;99589.34;5071382;28;20088;-46
2024/02/07 09:25:53;;;;;;;37.72;17.98;;;;;;;11.04;71.78;99590.31;5071260;28;20123;-45
2024/02/07 09:28:21;;;;;;;30.67;17.58;;;;;;;11.12;71.34;99591.47;5071490;28;20461;-45
2024/02/07 09:30:49;;;;;;;31.17;17.77;;;;;;;10.85;72.59;99599.63;5071445;28;20090;-47
2024/02/07 09:33:18;;;;;;;33.38;18.25;;;;;;;10.94;72.75;99578.59;5071519;28;20041;-47
2024/02/07 09:35:47;;;;;;;37.95;18.88;;;;;;;10.89;72.91;99578.91;5071173;28;20059;-45
2024/02/07 09:38:21;;;;;;;35.67;18.90;;;;;;;10.91;73.19;99565.50;5071133;28;20048;-45
2024/02/07 09:40:52;;;;;;;31.65;18.05;;;;;;;10.75;74.38;99569.25;5071340;28;20044;-46
2024/02/07 09:43:21;;;;;;;33.63;17.95;;;;;;;10.98;72.77;99558.72;5071208;28;20052;-44
2024/02/07 09:45:56;;;;;;;32.17;18.25;;;;;;;11.13;72.07;99566.47;5071276;28;20094;-45
2024/02/07 09:48:26;;;;;;;34.50;18.00;;;;;;;11.14;71.59;99554.81;5071337;28;20127;-47
2024/02/07 09:50:58;;;;;;;31.65;18.63;;;;;;;11.16;71.56;99560.03;5071226;28;20486;-45
2024/02/07 09:53:28;;;;;;;36.70;18.30;;;;;;;11.21;71.31;99563.25;5071257;28;20095;-44
2024/02/07 09:56:01;;;;;;;36.90;18.10;;;;;;;11.32;70.76;99557.13;5071123;28;20041;-45
2024/02/07 09:58:30;;;;;;;36.10;18.30;;;;;;;11.21;71.07;99544.56;5070830;28;20047;-45
2024/02/07 10:00:59;;;;;;;34.10;19.20;;;;;;;11.33;70.11;99551.66;5071072;28;20075;-45
2024/02/07 10:03:32;;;;;;;34.42;18.33;;;;;;;11.30;70.90;99545.69;5071043;28;20047;-44
2024/02/07 10:06:01;;;;;;;32.92;17.63;;;;;;;11.41;70.80;99549.25;5071368;28;20386;-46
2024/02/07 10:08:31;;;;;;;35.13;17.70;;;;;;;11.32;70.74;99528.59;5069977;28;20090;-47
2024/02/07 10:11:00;;;;;;;38.70;19.13;;;;;;;11.32;70.74;99528.59;5070601;28;20551;-45
2024/02/07 10:13:29;;;;;;;32.65;17.63;;;;;;;11.42;70.26;99524.25;5070853;28;20147;-45
2024/02/07 10:15:58;;;;;;;35.95;20.13;;;;;;;11.59;68.89;99523.00;5071036;28;20094;-46
2024/02/07 10:18:27;;;;;;;34.70;18.27;;;;;;;11.53;69.33;99514.59;5069299;28;20055;-45
2024/02/07 10:20:55;;;;;;;32.13;18.55;;;;;;;11.51;69.44;99506.69;5069198;28;20047;-45
2024/02/07 10:23:24;;;;;;;34.72;19.10;;;;;;;11.49;69.74;99503.31;5069169;28;20140;-45
2024/02/07 10:25:55;;;;;;;34.95;18.63;;;;;;;11.57;69.74;99513.38;5070562;28;20045;-45
2024/02/07 10:28:24;;;;;;;34.28;19.42;;;;;;;11.63;69.43;99510.25;5070700;28;20080;-45
2024/02/07 10:30:58;;;;;;;32.88;18.15;;;;;;;11.78;68.71;99506.41;5070410;28;20049;-47
2024/02/07 10:33:34;;;;;;;35.42;19.23;;;;;;;11.74;69.09;99486.22;5070564;28;20394;-45
2024/02/07 10:36:11;;;;;;;34.72;19.00;;;;;;;11.59;69.98;99498.13;5070638;28;20049;-47
2024/02/07 10:38:41;;;;;;;35.55;18.80;;;;;;;11.71;69.83;99497.16;5070483;28;20067;-45
2024/02/07 10:41:11;;;;;;;34.17;18.95;;;;;;;11.74;69.98;99480.88;5069994;28;20044;-48
2024/02/07 10:43:41;;;;;;;37.65;20.10;;;;;;;11.87;69.31;99479.03;5069580;28;20124;-46
2024/02/07 10:46:13;;;;;;;36.00;19.52;;;;;;;11.99;68.77;99470.03;5070340;28;20124;-44
2024/02/07 10:48:43;;;;;;;32.53;17.80;;;;;;;12.00;68.68;99466.41;5070725;28;20148;-47
2024/02/07 10:51:12;;;;;;;32.70;17.58;;;;;;;12.10;67.94;99461.19;5070581;28;20072;-46
2024/02/07 10:53:41;;;;;;;29.98;16.67;;;;;;;12.27;66.44;99462.53;5070475;28;20417;-44
2024/02/07 10:56:15;;;;;;;27.15;16.38;;;;;;;12.56;64.38;99457.50;5070537;28;20046;-46
2024/02/07 10:58:45;;;;;;;29.50;15.32;;;;;;;12.72;63.92;99459.78;5070289;28;20482;-46
2024/02/07 11:01:14;;;;;;;24.48;15.25;;;;;;;12.81;63.34;99446.47;5070281;28;20058;-44
2024/02/07 11:03:43;;;;;;;25.40;15.18;;;;;;;12.78;62.57;99448.56;5069969;28;20136;-46
2024/02/07 11:06:12;;;;;;;25.83;14.20;;;;;;;12.81;62.61;99448.31;5070129;28;20064;-46
2024/02/07 11:08:42;;;;;;;24.95;13.75;;;;;;;12.90;61.74;99444.88;5067859;28;20045;-43
2024/02/07 11:11:11;;;;;;;30.17;14.48;;;;;;;13.04;61.51;99431.22;5068856;28;20098;-46
2024/02/07 11:13:41;;;;;;;24.55;13.45;;;;;;;13.23;60.23;99429.72;5068575;28;20040;-45
2024/02/07 11:16:09;;;;;;;27.17;15.23;;;;;;;13.38;60.11;99428.41;5069113;28;20064;-42
2024/02/07 11:18:37;;;;;;;31.23;14.40;;;;;;;13.35;60.25;99434.03;5068783;28;20090;-47
2024/02/07 11:21:08;;;;;;;28.73;15.52;;;;;;;13.39;60.56;99424.75;5070291;28;20445;-47
2024/02/07 11:23:37;;;;;;;27.38;14.75;;;;;;;13.45;59.77;99421.56;5067300;28;20052;-46
2024/02/07 11:26:08;;;;;;;26.48;13.85;;;;;;;13.55;58.48;99425.16;5072061;28;20147;-46
2024/02/07 11:28:37;;;;;;;24.15;13.27;;;;;;;13.35;58.96;99428.69;5072944;28;20144;-46
2024/02/07 11:31:08;;;;;;;24.95;12.70;;;;;;;13.55;57.80;99422.47;5072297;28;20139;-45
2024/02/07 11:33:37;;;;;;;24.05;11.85;;;;;;;13.77;56.78;99413.41;5072126;28;20059;-48
2024/02/07 11:36:06;;;;;;;21.95;11.27;;;;;;;13.63;56.81;99417.31;5072647;28;20056;-44
2024/02/07 11:38:37;;;;;;;21.90;10.90;;;;;;;13.71;55.97;99406.78;5072322;28;20152;-49
2024/02/07 11:41:07;;;;;;;20.75;10.88;;;;;;;13.79;56.09;99405.25;5071776;28;20404;-44
2024/02/07 11:43:37;;;;;;;20.35;10.25;;;;;;;13.87;55.85;99386.66;5071931;28;20083;-44
2024/02/07 11:46:08;;;;;;;22.48;10.73;;;;;;;14.07;55.25;99396.50;5072041;28;20057;-44
2024/02/07 11:48:39;;;;;;;26.08;11.40;;;;;;;13.96;55.39;99396.59;5072359;28;20401;-46
2024/02/07 11:51:08;;;;;;;21.58;11.13;;;;;;;14.07;55.31;99398.31;5071224;28;20059;-46
2024/02/07 11:53:40;;;;;;;19.92;11.18;;;;;;;13.90;56.09;99383.75;5072390;28;20068;-45
2024/02/07 11:56:12;;;;;;;23.65;12.27;;;;;;;13.74;56.38;99392.25;5072138;28;20390;-44
2024/02/07 11:58:41;;;;;;;21.05;10.60;;;;;;;13.75;56.52;99388.59;5064578;28;20049;-45
2024/02/07 12:01:12;;;;;;;27.17;12.15;;;;;;;13.66;56.56;99384.88;5070640;28;20519;-46
2024/02/07 12:03:40;;;;;;;27.75;11.23;;;;;;;13.63;56.90;99385.16;5071665;28;20049;-46
2024/02/07 12:06:10;;;;;;;20.17;10.73;;;;;;;13.41;56.91;99382.59;5071708;28;20619;-44
2024/02/07 12:08:39;;;;;;;19.45;10.18;;;;;;;13.34;56.73;99379.63;5071238;28;20166;-45
2024/02/07 12:11:09;;;;;;;21.73;11.02;;;;;;;13.28;57.33;99379.28;5070704;28;20072;-44
2024/02/07 12:13:38;;;;;;;26.00;10.70;;;;;;;13.28;57.37;99373.94;5067378;28;20211;-48
2024/02/07 12:16:09;;;;;;;17.27;10.50;;;;;;;13.09;57.40;99380.81;5071476;28;20046;-45
2024/02/07 12:18:42;;;;;;;21.27;10.32;;;;;;;13.15;57.27;99374.09;5071440;28;20045;-44
2024/02/07 12:21:10;;;;;;;20.40;10.13;;;;;;;13.07;57.56;99382.75;5070446;28;20052;-45
2024/02/07 12:23:39;;;;;;;17.80;9.90;;;;;;;13.22;56.97;99379.78;5071121;28;20055;-48
2024/02/07 12:26:07;;;;;;;19.45;10.43;;;;;;;13.02;58.30;99374.25;5071534;28;20048;-45
2024/02/07 12:28:36;;;;;;;18.80;10.63;;;;;;;13.04;58.48;99376.84;5070988;28;20048;-47
2024/02/07 12:31:05;;;;;;;22.75;11.27;;;;;;;13.01;58.88;99377.06;5070481;28;20090;-45
2024/02/07 12:33:33;;;;;;;22.45;11.05;;;;;;;13.07;58.84;99377.41;5070884;28;20405;-45
2024/02/07 12:36:03;;;;;;;20.38;11.23;;;;;;;13.15;59.14;99364.22;5062650;28;20048;-46
2024/02/07 12:38:32;;;;;;;22.90;11.38;;;;;;;13.13;59.29;99368.03;5070956;28;20501;-45
2024/02/07 12:41:04;;;;;;;20.92;12.00;;;;;;;12.94;60.07;99370.56;5070910;28;20133;-46
2024/02/07 12:43:33;;;;;;;21.45;11.55;;;;;;;12.94;60.64;99371.41;5070686;28;20048;-44
2024/02/07 12:46:03;;;;;;;21.70;12.73;;;;;;;12.99;60.58;99363.81;5070891;28;20139;-46